createdAt,value
2022-08-18T00:01:14.905Z,12.18
2022-08-18T00:03:56.673Z,12.88
2022-08-18T00:06:29.542Z,12.57
2022-08-18T00:08:59.926Z,13.25
2022-08-18T00:11:41.071Z,12.88
2022-08-18T00:14:22.750Z,12.63
2022-08-18T00:16:53.520Z,12.02
2022-08-18T00:19:43.518Z,12.48
2022-08-18T00:22:15.283Z,13.57
2022-08-18T00:24:48.581Z,13.13
2022-08-18T00:27:23.776Z,13.05
2022-08-18T00:29:58.236Z,12.18
2022-08-18T00:32:30.188Z,12.77
2022-08-18T00:34:57.015Z,12.82
2022-08-18T00:37:24.720Z,11.68
2022-08-18T00:39:53.866Z,12.40
2022-08-18T00:42:30.722Z,13.27
2022-08-18T00:45:01.162Z,13.45
2022-08-18T00:47:33.013Z,13.38
2022-08-18T00:50:15.768Z,13.65
2022-08-18T00:52:53.677Z,14.30
2022-08-18T00:55:23.682Z,14.40
2022-08-18T00:57:55.899Z,15.10
2022-08-18T01:00:22.820Z,14.93
2022-08-18T01:02:58.931Z,14.70
2022-08-18T01:05:41.177Z,15.18
2022-08-18T01:08:14.296Z,13.93
2022-08-18T01:10:42.475Z,14.55
2022-08-18T01:13:10.257Z,13.50
2022-08-18T01:15:37.887Z,14.02
2022-08-18T01:18:29.475Z,13.68
2022-08-18T01:21:23.760Z,13.10
2022-08-18T01:23:53.544Z,13.05
2022-08-18T01:26:22.653Z,13.07
2022-08-18T01:28:50.556Z,13.40
2022-08-18T01:31:53.296Z,13.20
2022-08-18T01:34:25.592Z,13.45
2022-08-18T01:36:54.823Z,13.00
2022-08-18T01:41:17.269Z,13.70
2022-08-18T01:42:11.298Z,13.18
2022-08-18T01:44:41.464Z,11.88
2022-08-18T01:47:10.890Z,12.75
2022-08-18T01:49:43.136Z,13.27
2022-08-18T01:52:18.196Z,12.60
2022-08-18T01:54:44.827Z,12.57
2022-08-18T01:57:13.390Z,13.25
2022-08-18T01:59:42.391Z,12.75
2022-08-18T02:02:18.475Z,12.27
2022-08-18T02:04:47.352Z,11.95
2022-08-18T02:07:14.894Z,12.27
2022-08-18T02:09:43.674Z,12.73
2022-08-18T02:12:11.276Z,13.93
2022-08-18T02:14:39.282Z,12.65
2022-08-18T02:17:08.908Z,12.30
2022-08-18T02:19:40.264Z,11.88
2022-08-18T02:22:10.531Z,13.02
2022-08-18T02:24:38.283Z,12.52
2022-08-18T02:27:06.104Z,12.55
2022-08-18T02:29:33.289Z,12.02
2022-08-18T02:31:59.819Z,11.95
2022-08-18T02:34:26.457Z,12.65
2022-08-18T02:36:53.062Z,13.02
2022-08-18T02:39:20.324Z,12.25
2022-08-18T02:41:47.121Z,13.02
2022-08-18T02:44:14.319Z,12.88
2022-08-18T02:46:40.924Z,12.98
2022-08-18T02:49:08.030Z,13.13
2022-08-18T02:51:34.934Z,13.32
2022-08-18T02:54:01.652Z,13.68
2022-08-18T02:56:41.575Z,13.77
2022-08-18T02:59:15.195Z,13.40
2022-08-18T03:01:46.317Z,14.13
2022-08-18T03:04:17.600Z,13.68
2022-08-18T03:06:46.307Z,13.55
2022-08-18T03:09:18.434Z,13.70
2022-08-18T03:11:45.947Z,14.50
2022-08-18T03:14:14.482Z,13.95
2022-08-18T03:16:53.597Z,13.50
2022-08-18T03:19:29.030Z,14.25
2022-08-18T03:21:59.416Z,13.90
2022-08-18T03:24:29.885Z,14.27
2022-08-18T03:26:57.219Z,13.50
2022-08-18T03:29:29.482Z,14.25
2022-08-18T03:31:57.661Z,13.98
2022-08-18T03:34:24.228Z,14.38
2022-08-18T03:36:51.993Z,14.07
2022-08-18T03:39:22.831Z,14.30
2022-08-18T03:41:59.798Z,14.93
2022-08-18T03:44:36.966Z,15.02
2022-08-18T03:47:07.976Z,14.88
2022-08-18T03:49:35.456Z,15.07
2022-08-18T03:52:03.509Z,14.60
2022-08-18T03:54:34.158Z,15.50
2022-08-18T03:57:01.385Z,15.75
2022-08-18T03:59:30.614Z,15.50
2022-08-18T04:01:57.350Z,16.50
2022-08-18T04:04:28.218Z,15.50
2022-08-18T04:07:00.547Z,15.68
2022-08-18T04:09:30.778Z,15.65
2022-08-18T04:12:02.656Z,16.58
2022-08-18T04:14:31.476Z,15.98
2022-08-18T04:16:59.650Z,17.25
2022-08-18T04:19:27.814Z,16.40
2022-08-18T04:21:57.713Z,16.20
2022-08-18T04:24:28.263Z,16.67
2022-08-18T04:27:00.780Z,15.80
2022-08-18T04:29:28.451Z,16.00
2022-08-18T04:31:55.274Z,15.50
2022-08-18T04:34:23.094Z,14.88
2022-08-18T04:36:54.261Z,15.00
2022-08-18T04:39:22.785Z,15.00
2022-08-18T04:41:50.654Z,14.45
2022-08-18T04:44:18.202Z,14.57
2022-08-18T04:46:51.796Z,16.15
2022-08-18T04:49:23.931Z,14.75
2022-08-18T04:52:37.404Z,16.75
2022-08-18T04:54:56.354Z,14.88
2022-08-18T04:57:23.972Z,15.10
2022-08-18T04:59:52.372Z,20.27
2022-08-18T05:02:21.613Z,14.77
2022-08-18T05:04:48.754Z,14.65
2022-08-18T05:07:20.531Z,15.88
2022-08-18T05:09:47.150Z,14.93
2022-08-18T05:12:16.124Z,15.43
2022-08-18T05:14:45.291Z,16.20
2022-08-18T05:17:14.870Z,16.02
2022-08-18T05:19:44.346Z,15.68
2022-08-18T05:22:19.286Z,16.92
2022-08-18T05:24:52.837Z,18.08
2022-08-18T05:27:19.692Z,19.85
2022-08-18T05:29:46.449Z,18.10
2022-08-18T05:32:37.310Z,17.85
2022-08-18T05:35:18.743Z,17.83
2022-08-18T05:38:26.481Z,20.13
2022-08-18T05:41:14.275Z,19.98
2022-08-18T05:43:51.481Z,17.23
2022-08-18T05:46:26.274Z,19.25
2022-08-18T05:48:52.828Z,22.50
2022-08-18T05:51:41.064Z,22.80
2022-08-18T05:54:28.355Z,26.63
2022-08-18T05:57:05.316Z,25.65
2022-08-18T05:59:37.201Z,24.33
2022-08-18T06:02:36.672Z,21.77
2022-08-18T06:05:12.994Z,23.02
2022-08-18T06:07:56.871Z,23.92
2022-08-18T06:10:24.815Z,24.15
2022-08-18T06:13:01.798Z,24.33
2022-08-18T06:15:52.790Z,25.27
2022-08-18T06:18:49.310Z,24.45
2022-08-18T06:21:57.127Z,23.80
2022-08-18T06:24:44.308Z,25.08
2022-08-18T06:27:20.651Z,24.45
2022-08-18T06:30:24.635Z,24.85
2022-08-18T06:33:06.579Z,24.75
2022-08-18T06:35:58.545Z,24.17
2022-08-18T06:38:55.113Z,23.67
2022-08-18T06:41:40.732Z,23.57
2022-08-18T06:44:32.324Z,23.17
2022-08-18T06:47:11.289Z,23.60
2022-08-18T06:49:46.597Z,29.13
2022-08-18T06:53:02.159Z,26.67
2022-08-18T06:55:45.759Z,28.75
2022-08-18T06:58:12.179Z,37.13
2022-08-18T07:00:46.297Z,38.72
2022-08-18T07:03:21.794Z,35.88
2022-08-18T07:06:14.066Z,38.22
2022-08-18T07:08:45.233Z,36.90
2022-08-18T07:11:21.979Z,32.08
2022-08-18T07:14:09.584Z,30.73
2022-08-18T07:16:57.873Z,27.60
2022-08-18T07:19:30.795Z,30.27
2022-08-18T07:22:04.546Z,30.25
2022-08-18T07:24:44.662Z,30.15
2022-08-18T07:27:21.646Z,25.92
2022-08-18T07:30:15.335Z,26.95
2022-08-18T07:33:00.030Z,28.00
2022-08-18T07:35:39.250Z,32.15
2022-08-18T07:38:41.971Z,30.55
2022-08-18T07:41:22.732Z,27.08
2022-08-18T07:44:00.594Z,23.17
2022-08-18T07:46:38.609Z,22.98
2022-08-18T07:49:07.029Z,22.75
2022-08-18T07:52:43.923Z,23.40
2022-08-18T07:55:29.005Z,29.67
2022-08-18T07:58:23.331Z,34.67
2022-08-18T08:01:00.000Z,36.95
2022-08-18T08:03:55.651Z,35.75
2022-08-18T08:06:40.981Z,38.25
2022-08-18T08:09:46.119Z,39.22
2022-08-18T08:13:12.380Z,37.08
2022-08-18T08:16:12.401Z,35.72
2022-08-18T08:20:00.433Z,38.78
2022-08-18T08:22:38.406Z,37.40
2022-08-18T08:28:46.923Z,28.63
2022-08-18T08:32:04.052Z,27.92
2022-08-18T08:34:48.659Z,27.02
2022-08-18T08:37:24.417Z,26.17
2022-08-18T08:40:00.555Z,23.98
2022-08-18T08:45:32.260Z,22.58
2022-08-18T08:48:56.335Z,22.88
2022-08-18T08:51:34.852Z,23.73
2022-08-18T08:54:31.395Z,25.23
2022-08-18T08:57:02.062Z,25.33
2022-08-18T08:59:28.686Z,20.42
2022-08-18T09:02:32.011Z,20.08
2022-08-18T09:05:13.819Z,20.15
2022-08-18T09:08:32.663Z,20.45
2022-08-18T09:11:57.946Z,22.02
2022-08-18T09:14:57.060Z,21.77
2022-08-18T09:18:08.947Z,21.63
2022-08-18T09:20:56.922Z,18.50
2022-08-18T09:23:34.163Z,19.70
2022-08-18T09:26:41.448Z,20.98
2022-08-18T09:29:16.615Z,19.23
2022-08-18T09:31:46.561Z,22.80
2022-08-18T09:35:02.619Z,21.23
2022-08-18T09:38:17.458Z,18.63
2022-08-18T09:41:26.520Z,20.08
2022-08-18T09:44:35.128Z,20.70
2022-08-18T09:47:02.284Z,20.58
2022-08-18T09:49:29.102Z,21.48
2022-08-18T09:52:24.128Z,20.63
2022-08-18T09:55:17.896Z,19.05
2022-08-18T09:57:46.574Z,18.00
2022-08-18T10:00:29.589Z,19.15
2022-08-18T10:02:57.201Z,19.33
2022-08-18T10:05:31.028Z,18.20
2022-08-18T10:11:09.362Z,18.80
2022-08-18T10:14:07.770Z,18.05
2022-08-18T10:17:21.353Z,19.13
2022-08-18T10:20:07.921Z,19.90
2022-08-18T10:22:54.484Z,19.38
2022-08-18T10:25:46.306Z,20.52
2022-08-18T10:28:54.278Z,19.58
2022-08-18T10:34:19.401Z,19.02
2022-08-18T10:36:53.054Z,17.63
2022-08-18T10:39:42.835Z,16.85
2022-08-18T10:42:33.687Z,16.80
2022-08-18T10:45:13.737Z,16.52
2022-08-18T10:51:30.456Z,18.73
2022-08-18T10:54:54.897Z,18.33
2022-08-18T10:57:39.496Z,16.77
2022-08-18T11:00:21.255Z,17.17
2022-08-18T11:03:51.951Z,17.38
2022-08-18T11:06:21.716Z,13.85
2022-08-18T11:08:55.328Z,15.32
2022-08-18T11:11:38.075Z,16.23
2022-08-18T11:14:31.488Z,17.05
2022-08-18T11:17:28.127Z,16.55
2022-08-18T11:19:55.994Z,15.85
2022-08-18T11:22:35.568Z,16.73
2022-08-18T11:25:19.119Z,16.40
2022-08-18T11:27:48.723Z,16.90
2022-08-18T11:30:17.230Z,16.02
2022-08-18T11:32:51.763Z,17.35
2022-08-18T11:35:27.476Z,18.63
2022-08-18T11:38:03.212Z,17.13
2022-08-18T11:43:38.897Z,17.52
2022-08-18T11:46:29.282Z,14.60
2022-08-18T11:49:00.735Z,18.40
2022-08-18T11:51:34.157Z,15.55
2022-08-18T11:54:21.824Z,15.10
2022-08-18T11:56:50.326Z,15.65
2022-08-18T11:59:53.118Z,14.77
2022-08-18T12:02:18.143Z,15.05
2022-08-18T12:04:52.898Z,14.82
2022-08-18T12:07:30.759Z,13.88
2022-08-18T12:10:26.313Z,14.13
2022-08-18T12:12:59.808Z,14.82
2022-08-18T12:15:43.843Z,13.57
2022-08-18T12:18:25.922Z,13.47
2022-08-18T12:20:58.029Z,11.95
2022-08-18T12:23:24.938Z,15.98
2022-08-18T12:31:14.922Z,11.30
2022-08-18T12:34:00.856Z,10.93
2022-08-18T12:36:29.740Z,13.95
2022-08-18T12:38:57.109Z,12.88
2022-08-18T12:41:24.358Z,14.07
2022-08-18T12:43:59.138Z,11.82
2022-08-18T12:46:27.014Z,11.82
2022-08-18T12:48:53.831Z,13.95
2022-08-18T12:51:24.823Z,14.23
2022-08-18T12:56:31.582Z,18.67
2022-08-18T12:59:04.496Z,13.90
2022-08-18T13:01:37.326Z,19.13
2022-08-18T13:04:12.393Z,16.98
2022-08-18T13:06:58.894Z,13.00
2022-08-18T13:09:35.285Z,14.73
2022-08-18T13:12:17.119Z,14.13
2022-08-18T13:14:45.283Z,14.80
2022-08-18T13:17:29.973Z,18.98
2022-08-18T13:20:01.251Z,14.13
2022-08-18T13:22:32.144Z,17.15
2022-08-18T13:25:06.915Z,13.05
2022-08-18T13:27:35.916Z,14.15
2022-08-18T13:30:30.081Z,14.88
2022-08-18T13:33:05.384Z,11.30
2022-08-18T13:35:47.846Z,12.57
2022-08-18T13:38:25.864Z,14.45
2022-08-18T13:40:57.920Z,11.57
2022-08-18T13:43:34.241Z,12.93
2022-08-18T13:46:02.443Z,11.90
2022-08-18T13:48:31.860Z,12.10
2022-08-18T13:51:02.017Z,14.75
2022-08-18T13:53:31.698Z,15.00
2022-08-18T13:55:59.366Z,14.13
2022-08-18T13:58:29.216Z,12.75
2022-08-18T14:01:39.816Z,12.05
2022-08-18T14:03:53.581Z,13.30
2022-08-18T14:06:24.151Z,11.98
2022-08-18T14:08:53.389Z,12.85
2022-08-18T14:11:33.204Z,14.88
2022-08-18T14:14:02.074Z,12.05
2022-08-18T14:16:28.842Z,13.50
2022-08-18T14:19:14.190Z,13.38
2022-08-18T14:22:11.088Z,12.18
2022-08-18T14:24:59.816Z,13.63
2022-08-18T14:27:38.721Z,15.30
2022-08-18T14:30:11.211Z,13.68
2022-08-18T14:32:48.914Z,13.18
2022-08-18T14:35:33.818Z,14.15
2022-08-18T14:38:09.779Z,14.30
2022-08-18T14:40:41.762Z,15.93
2022-08-18T14:43:14.133Z,12.82
2022-08-18T14:45:48.959Z,12.88
2022-08-18T14:48:21.507Z,14.80
2022-08-18T14:50:52.482Z,14.90
2022-08-18T14:53:23.475Z,13.88
2022-08-18T14:55:52.573Z,13.70
2022-08-18T14:58:27.622Z,13.13
2022-08-18T15:00:58.308Z,13.10
2022-08-18T15:03:31.620Z,11.55
2022-08-18T15:06:00.970Z,12.90
2022-08-18T15:08:36.135Z,14.50
2022-08-18T15:11:11.763Z,14.25
2022-08-18T15:13:41.737Z,13.15
2022-08-18T15:16:13.350Z,12.95
2022-08-18T15:18:45.539Z,12.85
2022-08-18T15:21:34.848Z,13.05
2022-08-18T15:24:23.997Z,14.27
2022-08-18T15:27:03.266Z,13.55
2022-08-18T15:29:33.863Z,13.98
2022-08-18T15:32:05.741Z,13.57
2022-08-18T15:34:46.376Z,12.95
2022-08-18T15:37:15.891Z,12.02
2022-08-18T15:39:51.679Z,12.98
2022-08-18T15:42:19.098Z,13.82
2022-08-18T15:44:46.054Z,12.63
2022-08-18T15:47:12.638Z,13.45
2022-08-18T15:49:39.207Z,14.23
2022-08-18T15:52:06.775Z,13.85
2022-08-18T15:54:42.255Z,13.43
2022-08-18T15:57:39.004Z,13.20
2022-08-18T16:00:01.276Z,12.60
2022-08-18T16:02:27.799Z,12.85
2022-08-18T16:04:54.601Z,13.05
2022-08-18T16:07:40.043Z,15.13
2022-08-18T16:12:34.588Z,13.32
2022-08-18T16:15:03.699Z,14.18
2022-08-18T16:17:35.425Z,15.32
2022-08-18T16:20:02.041Z,14.35
2022-08-18T16:22:29.138Z,14.80
2022-08-18T16:24:55.751Z,14.88
2022-08-18T16:27:22.238Z,15.55
2022-08-18T16:29:49.539Z,13.15
2022-08-18T16:32:16.764Z,15.85
2022-08-18T16:34:43.403Z,14.88
2022-08-18T16:37:10.383Z,14.88
2022-08-18T16:39:37.042Z,14.23
2022-08-18T16:42:04.167Z,13.50
2022-08-18T16:44:32.699Z,13.65
2022-08-18T16:47:01.550Z,14.35
2022-08-18T16:49:28.839Z,12.55
2022-08-18T16:51:55.683Z,13.75
2022-08-18T16:54:22.569Z,15.38
2022-08-18T16:56:49.094Z,13.52
2022-08-18T16:59:34.444Z,14.45
2022-08-18T17:02:19.909Z,12.77
2022-08-18T17:04:46.457Z,14.80
2022-08-18T17:07:13.005Z,12.82
2022-08-18T17:09:39.555Z,14.43
2022-08-18T17:12:06.274Z,13.25
2022-08-18T17:14:33.579Z,13.50
2022-08-18T17:17:00.918Z,13.93
2022-08-18T17:19:33.527Z,14.02
2022-08-18T17:22:02.987Z,14.90
2022-08-18T17:24:31.959Z,14.65
2022-08-18T17:27:27.655Z,13.70
2022-08-18T17:30:18.527Z,12.88
2022-08-18T17:32:54.186Z,13.73
2022-08-18T17:35:33.181Z,14.48
2022-08-18T17:38:23.200Z,13.80
2022-08-18T17:40:54.421Z,15.65
2022-08-18T17:43:30.443Z,13.27
2022-08-18T17:48:37.605Z,14.95
2022-08-18T17:51:32.227Z,14.95
2022-08-18T17:54:02.460Z,14.85
2022-08-18T17:56:42.320Z,15.95
2022-08-18T17:59:51.298Z,15.27
2022-08-18T18:02:29.698Z,14.10
2022-08-18T18:05:09.260Z,14.77
2022-08-18T18:07:45.003Z,15.30
2022-08-18T18:10:51.077Z,14.20
2022-08-18T18:13:32.227Z,15.75
2022-08-18T18:16:27.909Z,14.75
2022-08-18T18:19:14.696Z,14.20
2022-08-18T18:22:00.530Z,14.80
2022-08-18T18:27:00.445Z,14.27
2022-08-18T18:29:38.272Z,13.80
2022-08-18T18:32:50.430Z,14.70
2022-08-18T18:35:34.171Z,14.63
2022-08-18T18:38:21.771Z,13.45
2022-08-18T18:40:58.809Z,14.38
2022-08-18T18:43:45.900Z,13.88
2022-08-18T18:46:31.096Z,13.75
2022-08-18T18:49:18.856Z,13.70
2022-08-18T18:52:45.479Z,15.98
2022-08-18T18:55:24.599Z,13.48
2022-08-18T18:58:12.375Z,14.32
2022-08-18T19:00:59.448Z,15.10
2022-08-18T19:03:56.715Z,13.40
2022-08-18T19:10:10.495Z,12.90
2022-08-18T19:12:52.604Z,17.40
2022-08-18T19:15:21.106Z,12.90
2022-08-18T19:18:08.901Z,13.27
2022-08-18T19:21:44.763Z,15.25
2022-08-18T19:24:02.380Z,13.43
2022-08-18T19:26:40.386Z,14.00
2022-08-18T19:29:23.074Z,12.93
2022-08-18T19:32:16.352Z,14.35
2022-08-18T19:34:51.371Z,16.25
2022-08-18T19:37:32.223Z,16.92
2022-08-18T19:40:23.955Z,14.48
2022-08-18T19:43:12.340Z,13.25
2022-08-18T19:46:10.982Z,13.43
2022-08-18T19:49:03.534Z,13.35
2022-08-18T19:51:37.453Z,13.45
2022-08-18T19:54:11.129Z,14.70
2022-08-18T19:57:03.406Z,14.93
2022-08-18T19:59:47.087Z,14.52
2022-08-18T20:02:35.191Z,14.80
2022-08-18T20:05:30.559Z,14.43
2022-08-18T20:08:28.563Z,14.00
2022-08-18T20:11:20.866Z,13.88
2022-08-18T20:14:12.576Z,14.13
2022-08-18T20:16:44.548Z,14.18
2022-08-18T20:19:51.807Z,14.90
2022-08-18T20:22:27.010Z,15.43
2022-08-18T20:25:06.079Z,13.80
2022-08-18T20:27:41.827Z,14.35
2022-08-18T20:31:15.520Z,14.90
2022-08-18T20:34:14.074Z,15.15
2022-08-18T20:36:43.677Z,15.35
2022-08-18T20:39:47.593Z,14.55
2022-08-18T20:42:24.552Z,14.02
2022-08-18T20:44:57.650Z,14.32
2022-08-18T20:47:48.442Z,15.20
2022-08-18T20:50:37.515Z,13.88
2022-08-18T20:53:22.731Z,15.32
2022-08-18T20:56:46.399Z,14.50
2022-08-18T20:59:30.515Z,14.05
2022-08-18T21:02:26.232Z,14.93
2022-08-18T21:04:57.752Z,13.93
2022-08-18T21:07:38.227Z,15.10
2022-08-18T21:10:22.972Z,14.88
2022-08-18T21:12:55.794Z,14.13
2022-08-18T21:15:35.388Z,14.93
2022-08-18T21:18:18.640Z,14.82
2022-08-18T21:20:48.916Z,15.82
2022-08-18T21:23:29.294Z,15.25
2022-08-18T21:26:06.620Z,16.23
2022-08-18T21:28:37.803Z,17.35
2022-08-18T21:31:43.606Z,15.48
2022-08-18T21:34:30.504Z,16.33
2022-08-18T21:37:00.518Z,15.43
2022-08-18T21:39:27.037Z,15.55
2022-08-18T21:41:56.963Z,15.07
2022-08-18T21:44:42.288Z,15.60
2022-08-18T21:47:21.585Z,15.50
2022-08-18T21:50:29.056Z,14.77
2022-08-18T21:52:59.987Z,15.52
2022-08-18T21:55:35.748Z,15.98
2022-08-18T21:58:16.638Z,15.82
2022-08-18T22:01:10.576Z,16.75
2022-08-18T22:03:59.140Z,15.68
2022-08-18T22:06:36.649Z,15.80
2022-08-18T22:09:48.287Z,15.98
2022-08-18T22:12:48.758Z,14.50
2022-08-18T22:15:27.065Z,14.93
2022-08-18T22:18:26.391Z,16.13
2022-08-18T22:21:00.859Z,14.80
2022-08-18T22:24:03.661Z,15.13
2022-08-18T22:26:36.689Z,14.85
2022-08-18T22:29:06.410Z,15.30
2022-08-18T22:31:38.899Z,16.08
2022-08-18T22:34:28.227Z,15.43
2022-08-18T22:37:09.800Z,14.70
2022-08-18T22:39:53.597Z,16.25
2022-08-18T22:42:25.811Z,16.63
2022-08-18T22:44:53.110Z,16.85
2022-08-18T22:47:20.078Z,16.00
2022-08-18T22:49:47.254Z,17.25
2022-08-18T22:52:29.754Z,15.30
2022-08-18T22:54:59.655Z,16.52
2022-08-18T22:57:29.370Z,16.42
2022-08-18T22:59:56.600Z,15.63
2022-08-18T23:02:24.703Z,17.52
2022-08-18T23:04:51.240Z,16.70
2022-08-18T23:07:22.554Z,16.17
2022-08-18T23:09:49.084Z,16.48
2022-08-18T23:12:17.104Z,15.20
2022-08-18T23:14:46.438Z,16.40
2022-08-18T23:17:14.060Z,16.42
2022-08-18T23:19:40.886Z,16.80
2022-08-18T23:22:09.535Z,15.95
2022-08-18T23:24:38.515Z,15.80
2022-08-18T23:27:06.149Z,16.83
2022-08-18T23:29:36.568Z,16.65
2022-08-18T23:32:07.919Z,17.10
2022-08-18T23:34:36.000Z,16.95
2022-08-18T23:37:04.487Z,16.92
2022-08-18T23:39:34.808Z,16.35
2022-08-18T23:42:03.751Z,16.50
2022-08-18T23:44:30.790Z,17.02
2022-08-18T23:46:59.790Z,17.02
2022-08-18T23:49:28.599Z,16.52
2022-08-18T23:51:56.013Z,17.88
2022-08-18T23:54:32.183Z,16.98
2022-08-18T23:56:59.482Z,16.67
2022-08-18T23:59:28.498Z,16.70
